Time;durP1;ratioP1;P1;durP2;ratioP2;P2;SDS_P1;SDS_P2;PMS_P1;PMS_P2;Temp;Humidity;BMP_temperature;BMP_pressure;BME280_temperature;BME280_humidity;BME280_pressure;Samples;Min_cycle;Max_cycle;Signal;HPM_P1;HPM_P2
2021/06/19 00:01:04;;;;;;;15.82;2.92;;;47.50;13.40;;;;;;5053903;28;20058;-67
2021/06/19 00:03:30;;;;;;;8.10;2.50;;;47.50;12.50;;;;;;5067847;28;20078;-67
2021/06/19 00:05:57;;;;;;;9.65;2.75;;;47.30;12.90;;;;;;5067102;28;20098;-67
2021/06/19 00:08:24;;;;;;;13.07;2.72;;;47.20;14.70;;;;;;5066169;28;20059;-67
2021/06/19 00:10:51;;;;;;;11.95;3.03;;;47.30;13.90;;;;;;5046511;28;20063;-67
2021/06/19 00:13:19;;;;;;;10.75;2.70;;;47.30;12.80;;;;;;5069034;28;20112;-67
2021/06/19 00:15:45;;;;;;;10.73;2.95;;;47.30;12.50;;;;;;5064889;28;20067;-67
2021/06/19 00:18:15;;;;;;;13.25;2.85;;;47.30;12.60;;;;;;5069984;28;20089;-67
2021/06/19 00:20:43;;;;;;;6.63;2.35;;;47.40;12.00;;;;;;5063669;28;20073;-68
2021/06/19 00:23:09;;;;;;;13.02;3.20;;;47.40;12.80;;;;;;5069069;28;20183;-68
2021/06/19 00:25:36;;;;;;;13.18;2.88;;;47.40;13.30;;;;;;5070676;28;20063;-68
2021/06/19 00:28:03;;;;;;;7.88;2.60;;;;;;;;;;5047076;28;20116;-68
2021/06/19 00:30:30;;;;;;;9.43;2.50;;;46.90;18.10;;;;;;5065720;28;20037;-67
2021/06/19 00:32:57;;;;;;;14.65;3.38;;;47.10;13.40;;;;;;5064427;28;20074;-66
2021/06/19 00:35:24;;;;;;;16.63;3.13;;;46.90;13.80;;;;;;5048507;28;20059;-67
2021/06/19 00:37:51;;;;;;;19.65;4.03;;;46.90;14.00;;;;;;5048229;28;21445;-67
2021/06/19 00:40:22;;;;;;;13.85;3.03;;;46.90;15.30;;;;;;5049724;28;20524;-67
2021/06/19 00:43:03;;;;;;;21.17;3.10;;;46.80;15.10;;;;;;5067889;28;20140;-66
2021/06/19 00:45:33;;;;;;;11.38;3.50;;;46.80;14.50;;;;;;5046241;28;20531;-67
2021/06/19 00:48:00;;;;;;;13.32;3.13;;;46.50;18.30;;;;;;5052295;28;20059;-67
2021/06/19 00:50:27;;;;;;;8.38;2.72;;;46.70;14.50;;;;;;5069012;28;20020;-68
2021/06/19 00:52:56;;;;;;;17.42;3.30;;;46.70;15.10;;;;;;5065723;28;20602;-67
2021/06/19 00:55:26;;;;;;;15.65;3.30;;;46.60;15.50;;;;;;5048358;28;20154;-68
2021/06/19 00:57:53;;;;;;;21.00;3.78;;;46.50;15.70;;;;;;5065614;28;20086;-68
2021/06/19 01:00:22;;;;;;;20.33;4.22;;;46.40;16.60;;;;;;5070660;28;20062;-68
2021/06/19 01:02:48;;;;;;;17.25;3.60;;;46.30;17.20;;;;;;5051930;28;20089;-69
2021/06/19 01:05:15;;;;;;;25.30;3.90;;;46.20;17.80;;;;;;5055491;28;20058;-68
2021/06/19 01:07:42;;;;;;;16.15;3.40;;;46.00;18.20;;;;;;5054695;28;20058;-67
2021/06/19 01:10:09;;;;;;;20.60;3.42;;;45.90;18.70;;;;;;5054996;28;20644;-68
2021/06/19 01:12:36;;;;;;;31.80;3.58;;;45.80;18.80;;;;;;5073408;28;20070;-67
2021/06/19 01:15:03;;;;;;;21.60;3.47;;;45.60;19.10;;;;;;5049886;28;20063;-67
2021/06/19 01:17:30;;;;;;;38.63;4.72;;;45.50;19.40;;;;;;5051332;28;20075;-67
2021/06/19 01:20:03;;;;;;;28.08;4.35;;;45.20;19.40;;;;;;5049252;28;20105;-66
2021/06/19 01:22:30;;;;;;;26.88;5.10;;;45.00;19.60;;;;;;5059710;28;20103;-67
2021/06/19 01:24:59;;;;;;;25.67;4.30;;;44.90;19.70;;;;;;5069157;28;20062;-68
2021/06/19 01:27:29;;;;;;;31.83;4.55;;;44.90;19.70;;;;;;5073258;28;20068;-67
2021/06/19 01:29:57;;;;;;;33.30;5.15;;;44.70;20.20;;;;;;5072337;28;20075;-67
2021/06/19 01:32:31;;;;;;;27.30;5.20;;;44.60;21.20;;;;;;5070826;28;20081;-67
2021/06/19 01:34:58;;;;;;;35.78;4.80;;;44.40;21.30;;;;;;5068832;28;20534;-67
2021/06/19 01:37:24;;;;;;;30.70;5.03;;;44.20;21.90;;;;;;5073339;28;20097;-67
2021/06/19 01:39:51;;;;;;;46.78;6.47;;;44.10;22.40;;;;;;5071114;28;20072;-67
2021/06/19 01:42:18;;;;;;;42.00;8.63;;;44.00;22.70;;;;;;5071910;28;20087;-66
2021/06/19 01:44:45;;;;;;;45.15;9.63;;;43.80;22.60;;;;;;5067451;28;20073;-66
2021/06/19 01:47:14;;;;;;;45.20;13.30;;;43.70;22.80;;;;;;5066975;28;20077;-66
2021/06/19 01:49:41;;;;;;;50.05;12.48;;;43.50;23.00;;;;;;5067285;28;20596;-66
2021/06/19 01:52:08;;;;;;;40.95;9.45;;;43.30;23.40;;;;;;5069380;28;20081;-68
2021/06/19 01:54:40;;;;;;;34.58;7.10;;;43.30;23.60;;;;;;5051029;28;20066;-69
2021/06/19 01:57:08;;;;;;;44.90;6.20;;;43.10;23.70;;;;;;5066935;28;20147;-68
2021/06/19 01:59:35;;;;;;;46.90;8.15;;;43.00;23.90;;;;;;5066431;28;20092;-68
2021/06/19 02:02:03;;;;;;;38.17;7.18;;;42.80;24.00;;;;;;5071855;28;20076;-68
2021/06/19 02:04:33;;;;;;;30.55;7.43;;;42.80;24.10;;;;;;5067774;28;20096;-67
2021/06/19 02:07:00;;;;;;;30.73;6.88;;;42.60;24.40;;;;;;5057080;28;20096;-68
2021/06/19 02:09:27;;;;;;;30.17;7.50;;;42.50;24.20;;;;;;5071356;28;20077;-67
2021/06/19 02:11:54;;;;;;;30.92;7.55;;;42.50;24.20;;;;;;5071641;28;20112;-68
2021/06/19 02:14:20;;;;;;;43.25;7.80;;;42.30;23.90;;;;;;5070337;28;20069;-68
2021/06/19 02:16:47;;;;;;;37.47;7.05;;;42.20;23.80;;;;;;5069629;28;20089;-68
2021/06/19 02:19:14;;;;;;;20.67;6.22;;;42.10;23.70;;;;;;5067399;28;20495;-66
2021/06/19 02:21:41;;;;;;;29.20;6.07;;;42.00;23.80;;;;;;5065176;28;20156;-69
2021/06/19 02:24:08;;;;;;;17.90;5.15;;;41.90;23.60;;;;;;5065542;28;20134;-69
2021/06/19 02:26:35;;;;;;;22.30;4.85;;;41.70;23.60;;;;;;5088133;28;20156;-70
2021/06/19 02:29:01;;;;;;;25.70;4.63;;;41.70;23.50;;;;;;5067872;28;20098;-68
2021/06/19 02:31:31;;;;;;;24.92;4.30;;;41.70;23.90;;;;;;5069670;28;20069;-66
2021/06/19 02:33:58;;;;;;;22.80;3.50;;;41.50;24.10;;;;;;5070861;28;20076;-69
2021/06/19 02:36:24;;;;;;;20.90;4.00;;;41.40;24.00;;;;;;5068487;28;20149;-68
2021/06/19 02:38:51;;;;;;;16.10;3.92;;;41.40;24.20;;;;;;5069645;28;20069;-70
2021/06/19 02:41:18;;;;;;;20.92;3.55;;;41.20;23.70;;;;;;5068859;28;20123;-67
2021/06/19 02:43:45;;;;;;;20.58;3.58;;;41.10;23.90;;;;;;5068853;28;20105;-67
2021/06/19 02:46:12;;;;;;;28.80;5.22;;;41.10;24.20;;;;;;5071678;28;20437;-67
2021/06/19 02:48:40;;;;;;;27.80;4.18;;;41.00;24.50;;;;;;5070265;28;20226;-68
2021/06/19 02:51:08;;;;;;;18.30;3.53;;;40.80;24.60;;;;;;5069822;28;20156;-67
2021/06/19 02:53:34;;;;;;;22.02;4.40;;;40.80;24.90;;;;;;5080466;22;20116;-67
2021/06/19 02:58:26;;;;;;;21.60;4.25;;;40.60;25.50;;;;;;5083084;22;20540;-68
2021/06/19 03:00:54;;;;;;;24.15;3.53;;;40.60;25.60;;;;;;5078173;23;20117;-67
2021/06/19 03:03:24;;;;;;;26.67;4.07;;;40.50;25.80;;;;;;5065156;28;20081;-67
2021/06/19 03:05:50;;;;;;;16.85;3.88;;;40.40;25.80;;;;;;5058950;22;20124;-66
2021/06/19 03:08:17;;;;;;;24.15;3.75;;;40.20;25.90;;;;;;5016490;28;20109;-69
2021/06/19 03:10:44;;;;;;;19.42;3.63;;;40.10;26.10;;;;;;5064835;22;20125;-66
2021/06/19 03:13:11;;;;;;;25.08;4.10;;;40.00;26.10;;;;;;5070322;22;20203;-67
2021/06/19 03:15:38;;;;;;;22.33;3.88;;;40.00;26.20;;;;;;5090915;22;20119;-70
2021/06/19 03:18:05;;;;;;;24.23;3.15;;;39.90;26.20;;;;;;5058242;28;20124;-66
2021/06/19 03:20:32;;;;;;;22.35;3.55;;;39.80;26.30;;;;;;5064264;22;20539;-67
2021/06/19 03:23:00;;;;;;;23.70;4.18;;;39.70;26.30;;;;;;5053166;22;20120;-67
2021/06/19 03:25:32;;;;;;;23.27;3.63;;;39.70;26.40;;;;;;5086222;22;20111;-67
2021/06/19 03:28:01;;;;;;;23.63;4.15;;;39.70;26.30;;;;;;5065708;22;20163;-66
2021/06/19 03:30:30;;;;;;;22.65;3.85;;;39.60;26.20;;;;;;5038501;28;20156;-69
2021/06/19 03:32:57;;;;;;;24.35;4.10;;;39.50;26.20;;;;;;5044892;22;20181;-69
2021/06/19 03:35:24;;;;;;;29.75;4.85;;;39.50;26.40;;;;;;5074717;22;23203;-66
2021/06/19 03:37:53;;;;;;;22.33;4.53;;;39.40;25.90;;;;;;5054820;28;20128;-65
2021/06/19 03:40:20;;;;;;;29.98;4.22;;;39.40;25.70;;;;;;5051736;22;20535;-68
2021/06/19 03:42:49;;;;;;;30.30;4.57;;;39.40;25.90;;;;;;5074504;22;20211;-68
2021/06/19 03:45:20;;;;;;;29.00;4.78;;;39.30;26.60;;;;;;5096883;22;20082;-66
2021/06/19 03:47:47;;;;;;;24.02;4.90;;;39.20;26.50;;;;;;5040033;22;20122;-69
2021/06/19 03:50:19;;;;;;;28.95;5.32;;;39.20;26.30;;;;;;5047938;22;20151;-65
2021/06/19 03:52:46;;;;;;;22.35;5.38;;;39.00;25.80;;;;;;5082950;28;20080;-69
2021/06/19 03:55:15;;;;;;;28.77;5.00;;;38.90;26.40;;;;;;5075539;28;20084;-67
2021/06/19 03:57:42;;;;;;;27.60;6.18;;;38.90;26.00;;;;;;5096993;22;20117;-68
2021/06/19 04:00:15;;;;;;;33.10;6.80;;;38.90;25.60;;;;;;5074120;22;20069;-68
2021/06/19 04:02:42;;;;;;;26.13;5.80;;;38.90;25.40;;;;;;5087086;22;20127;-68
2021/06/19 04:05:10;;;;;;;27.08;5.30;;;38.80;25.70;;;;;;5074895;22;20477;-69
2021/06/19 04:07:37;;;;;;;23.30;5.72;;;38.70;25.80;;;;;;5061852;23;20113;-68
2021/06/19 04:10:06;;;;;;;24.88;6.15;;;38.70;25.80;;;;;;5068002;28;20104;-67
2021/06/19 04:12:33;;;;;;;28.10;5.95;;;38.70;25.90;;;;;;5076548;22;20120;-67
2021/06/19 04:15:00;;;;;;;27.92;5.75;;;38.60;25.70;;;;;;5071404;28;20564;-67
2021/06/19 04:17:28;;;;;;;29.42;8.13;;;38.60;25.60;;;;;;5070618;28;20161;-67
2021/06/19 04:19:54;;;;;;;29.98;7.32;;;38.60;25.60;;;;;;5073194;28;20531;-67
2021/06/19 04:22:21;;;;;;;25.80;7.28;;;38.60;25.40;;;;;;5078606;22;20081;-66
2021/06/19 04:24:47;;;;;;;27.45;8.32;;;38.50;25.70;;;;;;5062917;28;20070;-66
2021/06/19 04:27:17;;;;;;;29.73;8.15;;;38.50;25.40;;;;;;5059778;28;20081;-67
2021/06/19 04:29:45;;;;;;;31.33;7.22;;;38.50;25.80;;;;;;5075194;28;20533;-66
2021/06/19 04:32:12;;;;;;;36.85;7.22;;;38.50;25.80;;;;;;5057388;28;20096;-66
2021/06/19 04:34:43;;;;;;;29.02;6.15;;;38.40;26.20;;;;;;5063688;28;20114;-67
2021/06/19 04:37:11;;;;;;;40.22;6.68;;;38.10;26.20;;;;;;5060539;28;20098;-66
2021/06/19 04:39:42;;;;;;;46.78;5.95;;;38.20;26.70;;;;;;5057643;28;20068;-66
2021/06/19 04:42:13;;;;;;;37.45;5.55;;;38.10;26.80;;;;;;5063001;28;20158;-67
2021/06/19 04:45:01;;;;;;;27.80;5.95;;;38.10;27.10;;;;;;5057660;28;20065;-67
2021/06/19 04:47:30;;;;;;;27.27;5.70;;;38.10;27.20;;;;;;5060722;28;20073;-66
2021/06/19 04:49:58;;;;;;;38.13;4.82;;;38.10;27.20;;;;;;5060751;28;20081;-66
2021/06/19 04:52:25;;;;;;;28.95;4.90;;;38.10;27.50;;;;;;5059859;28;20108;-67
2021/06/19 04:54:54;;;;;;;29.80;4.93;;;38.00;28.00;;;;;;5059179;28;20074;-67
2021/06/19 04:57:24;;;;;;;18.50;4.53;;;37.90;28.00;;;;;;5074902;28;20108;-67
2021/06/19 04:59:51;;;;;;;25.67;5.07;;;37.80;27.90;;;;;;5060269;28;20073;-65
2021/06/19 05:02:17;;;;;;;20.25;4.75;;;38.00;27.90;;;;;;5059046;28;20085;-66
2021/06/19 05:04:44;;;;;;;26.77;4.63;;;38.20;27.60;;;;;;5056746;28;20080;-67
2021/06/19 05:07:12;;;;;;;27.00;4.70;;;38.40;27.80;;;;;;5060753;28;20077;-65
2021/06/19 05:09:40;;;;;;;28.48;5.32;;;38.50;27.90;;;;;;5058666;28;20073;-67
2021/06/19 05:12:08;;;;;;;23.85;5.38;;;38.50;27.90;;;;;;5061754;28;20085;-66
2021/06/19 05:14:36;;;;;;;22.17;5.97;;;38.50;27.30;;;;;;5058082;28;20107;-67
2021/06/19 05:17:03;;;;;;;21.75;4.57;;;38.50;27.40;;;;;;5059090;28;20089;-66
2021/06/19 05:19:30;;;;;;;20.75;4.40;;;38.50;27.50;;;;;;5068836;22;20225;-65
2021/06/19 05:21:56;;;;;;;20.45;4.38;;;38.40;27.70;;;;;;5077748;28;20069;-66
2021/06/19 05:24:23;;;;;;;21.40;4.90;;;38.40;27.40;;;;;;5066745;28;20085;-67
2021/06/19 05:26:50;;;;;;;19.25;4.53;;;38.40;28.10;;;;;;5075173;28;20086;-67
2021/06/19 05:29:16;;;;;;;26.00;4.82;;;38.40;27.00;;;;;;5065683;28;20089;-66
2021/06/19 05:31:43;;;;;;;16.52;5.25;;;38.40;27.30;;;;;;5070648;28;20129;-66
2021/06/19 05:34:10;;;;;;;17.48;4.88;;;38.40;26.80;;;;;;5068774;28;20081;-67
2021/06/19 05:36:36;;;;;;;22.00;4.03;;;38.30;26.90;;;;;;5054136;28;20093;-66
2021/06/19 05:39:04;;;;;;;16.08;4.47;;;38.20;27.00;;;;;;5052321;28;20081;-65
2021/06/19 05:41:31;;;;;;;19.10;4.47;;;38.10;27.20;;;;;;5053028;28;20065;-67
2021/06/19 05:43:58;;;;;;;14.85;4.05;;;38.10;27.30;;;;;;5071674;28;20077;-66
2021/06/19 05:46:25;;;;;;;13.02;4.55;;;38.00;27.60;;;;;;5052144;28;20065;-67
2021/06/19 05:48:56;;;;;;;24.90;3.85;;;37.90;27.70;;;;;;5070615;22;20641;-66
2021/06/19 05:51:23;;;;;;;14.25;3.88;;;37.90;27.80;;;;;;5066671;28;20410;-67
2021/06/19 05:53:50;;;;;;;21.35;4.25;;;37.90;28.00;;;;;;5070407;28;20510;-67
2021/06/19 05:56:18;;;;;;;16.52;4.90;;;37.80;28.30;;;;;;5064853;28;20538;-66
2021/06/19 05:58:45;;;;;;;28.45;4.90;;;37.60;28.40;;;;;;5066881;28;20092;-67
2021/06/19 06:01:13;;;;;;;29.48;5.55;;;37.50;29.00;;;;;;5068977;28;20071;-65
2021/06/19 06:03:39;;;;;;;31.17;5.20;;;37.30;29.80;;;;;;5067946;28;20073;-66
2021/06/19 06:06:06;;;;;;;28.63;4.95;;;37.20;30.50;;;;;;5068669;28;20073;-66
2021/06/19 06:08:32;;;;;;;29.67;5.25;;;37.10;30.90;;;;;;5068427;28;20082;-66
2021/06/19 06:10:59;;;;;;;26.73;5.22;;;37.00;31.30;;;;;;5069422;28;20080;-66
2021/06/19 06:13:26;;;;;;;25.50;4.90;;;36.90;31.90;;;;;;5073252;28;20159;-66
2021/06/19 06:15:53;;;;;;;29.08;5.35;;;36.80;32.40;;;;;;5066851;28;20081;-67
2021/06/19 06:18:19;;;;;;;28.15;5.45;;;36.60;33.00;;;;;;5078729;23;20139;-66
2021/06/19 06:20:46;;;;;;;31.27;5.28;;;36.40;33.40;;;;;;5055955;28;20065;-66
2021/06/19 06:23:13;;;;;;;26.73;4.63;;;36.40;33.70;;;;;;5065101;28;20081;-66
2021/06/19 06:25:40;;;;;;;28.17;6.10;;;36.30;34.00;;;;;;5066425;28;20100;-66
2021/06/19 06:28:07;;;;;;;37.10;5.47;;;36.20;34.50;;;;;;5056373;28;20160;-65
2021/06/19 06:30:34;;;;;;;26.85;5.35;;;36.20;34.90;;;;;;5055352;28;20084;-67
2021/06/19 06:33:01;;;;;;;28.80;5.32;;;36.00;35.30;;;;;;5074709;28;20534;-66
2021/06/19 06:35:27;;;;;;;30.60;5.45;;;36.00;35.50;;;;;;5074954;28;20088;-67
2021/06/19 06:37:54;;;;;;;32.10;5.70;;;35.90;35.80;;;;;;5074399;28;20105;-67
2021/06/19 06:40:21;;;;;;;21.75;5.00;;;35.80;36.20;;;;;;5056580;28;20080;-66
2021/06/19 06:42:48;;;;;;;19.85;5.47;;;35.70;36.80;;;;;;5056127;28;20080;-67
2021/06/19 06:45:16;;;;;;;26.05;6.20;;;35.60;37.30;;;;;;5063685;22;20104;-66
2021/06/19 06:47:43;;;;;;;31.52;5.05;;;35.40;37.80;;;;;;5065234;28;20168;-65
2021/06/19 06:50:11;;;;;;;37.15;7.10;;;35.40;38.50;;;;;;5066910;28;20437;-66
2021/06/19 06:52:37;;;;;;;24.92;5.13;;;35.30;38.90;;;;;;5051818;28;20073;-65
2021/06/19 06:55:06;;;;;;;22.30;4.93;;;35.30;39.30;;;;;;5048165;28;20146;-65
2021/06/19 06:57:33;;;;;;;16.75;4.68;;;35.00;40.20;;;;;;5065859;28;20097;-66
2021/06/19 07:00:00;;;;;;;17.80;4.45;;;34.90;40.40;;;;;;5048407;23;20112;-65
2021/06/19 07:02:28;;;;;;;27.23;5.18;;;34.80;40.70;;;;;;5072888;28;20408;-66
2021/06/19 07:04:56;;;;;;;25.08;4.50;;;34.80;40.90;;;;;;5072249;28;20451;-65
2021/06/19 07:07:23;;;;;;;20.25;4.82;;;34.60;41.10;;;;;;5095814;22;20069;-65
2021/06/19 07:09:50;;;;;;;26.92;4.60;;;34.50;41.30;;;;;;5087720;28;20120;-63
2021/06/19 07:12:17;;;;;;;22.45;5.15;;;34.50;41.40;;;;;;5068352;28;20072;-66
2021/06/19 07:14:44;;;;;;;14.68;4.00;;;34.40;41.40;;;;;;5089073;28;20492;-66
2021/06/19 07:17:11;;;;;;;19.80;4.43;;;34.40;41.50;;;;;;5089275;28;20468;-64
2021/06/19 07:19:41;;;;;;;17.58;3.83;;;34.40;41.60;;;;;;5070776;28;20125;-63
2021/06/19 07:22:08;;;;;;;16.60;4.47;;;34.30;41.60;;;;;;5090118;28;20565;-65
2021/06/19 07:24:36;;;;;;;24.63;4.40;;;34.30;41.80;;;;;;5071788;28;20169;-64
2021/06/19 07:27:03;;;;;;;19.08;4.20;;;34.30;41.90;;;;;;5089132;28;20092;-66
2021/06/19 07:29:31;;;;;;;15.27;4.07;;;34.20;42.10;;;;;;5087247;28;20085;-66
2021/06/19 07:31:57;;;;;;;14.27;3.75;;;34.10;42.10;;;;;;5085352;28;20160;-65
2021/06/19 07:34:24;;;;;;;29.75;4.68;;;34.10;42.00;;;;;;5090018;28;20076;-64
2021/06/19 07:36:51;;;;;;;17.90;3.97;;;34.10;42.30;;;;;;5070130;28;20081;-65
2021/06/19 07:39:17;;;;;;;21.02;3.95;;;34.10;42.10;;;;;;5086664;28;20163;-66
2021/06/19 07:41:44;;;;;;;17.08;4.10;;;34.00;42.30;;;;;;5086767;28;20530;-65
2021/06/19 07:44:11;;;;;;;16.20;3.90;;;34.00;42.50;;;;;;5090900;28;20081;-66
2021/06/19 07:46:41;;;;;;;14.45;4.10;;;34.00;42.40;;;;;;5068315;28;20084;-66
2021/06/19 07:49:08;;;;;;;13.70;4.05;;;33.80;42.60;;;;;;5081082;28;20096;-65
2021/06/19 07:51:35;;;;;;;20.10;4.63;;;33.80;42.90;;;;;;5067905;28;20085;-65
2021/06/19 07:54:01;;;;;;;16.20;4.07;;;33.80;43.00;;;;;;5057656;28;20072;-65
2021/06/19 07:56:28;;;;;;;12.55;3.78;;;33.70;43.00;;;;;;5086607;28;20462;-65
2021/06/19 07:58:54;;;;;;;12.65;3.20;;;33.80;42.90;;;;;;5071071;28;20529;-65
2021/06/19 08:01:21;;;;;;;19.50;3.58;;;33.70;43.00;;;;;;5090445;28;20060;-65
2021/06/19 08:03:47;;;;;;;13.02;3.60;;;33.70;43.20;;;;;;5086827;28;20155;-64
2021/06/19 08:06:14;;;;;;;16.75;3.45;;;33.60;43.10;;;;;;5087709;28;20068;-65
2021/06/19 08:08:44;;;;;;;14.05;3.13;;;33.70;43.30;;;;;;5069550;28;21522;-64
2021/06/19 08:11:10;;;;;;;13.25;3.75;;;33.50;43.30;;;;;;5070709;28;20068;-65
2021/06/19 08:13:40;;;;;;;17.95;3.50;;;33.50;43.60;;;;;;5085735;28;20069;-65
2021/06/19 08:16:09;;;;;;;26.27;4.07;;;33.40;43.80;;;;;;5090056;28;20073;-66
2021/06/19 08:18:36;;;;;;;17.63;3.92;;;33.40;43.90;;;;;;5067384;28;20573;-65
2021/06/19 08:21:02;;;;;;;16.05;4.05;;;33.40;43.80;;;;;;5069490;28;20514;-64
2021/06/19 08:23:29;;;;;;;18.95;3.92;;;33.40;43.70;;;;;;5056758;28;20072;-63
2021/06/19 08:25:55;;;;;;;15.55;3.90;;;33.40;44.10;;;;;;5086413;28;20548;-65
2021/06/19 08:28:22;;;;;;;20.73;3.70;;;33.30;44.00;;;;;;5084605;28;20077;-66
2021/06/19 08:30:49;;;;;;;16.90;3.20;;;33.30;44.30;;;;;;5088258;28;20151;-65
2021/06/19 08:33:15;;;;;;;14.48;3.25;;;33.20;44.20;;;;;;5068073;28;20080;-66
2021/06/19 08:35:42;;;;;;;13.45;4.03;;;33.20;44.30;;;;;;5089822;28;20495;-64
2021/06/19 08:38:09;;;;;;;15.00;3.55;;;33.10;44.40;;;;;;5064704;28;20256;-65
2021/06/19 08:40:38;;;;;;;14.52;3.38;;;33.00;44.50;;;;;;5065421;28;20088;-64
2021/06/19 08:43:05;;;;;;;17.15;3.60;;;33.10;44.80;;;;;;5068140;28;20080;-64
2021/06/19 08:45:33;;;;;;;15.13;4.40;;;33.00;44.50;;;;;;5066400;28;20069;-65
2021/06/19 08:48:04;;;;;;;19.02;4.05;;;33.00;44.70;;;;;;5089343;28;20429;-66
2021/06/19 08:50:31;;;;;;;17.85;4.03;;;32.80;44.80;;;;;;5070104;28;20159;-63
2021/06/19 08:52:59;;;;;;;13.73;3.83;;;32.90;45.00;;;;;;5065035;28;20433;-64
2021/06/19 08:55:28;;;;;;;12.13;3.70;;;33.00;44.90;;;;;;5088622;28;20576;-66
2021/06/19 08:57:55;;;;;;;19.77;4.07;;;32.90;44.70;;;;;;5066239;28;20610;-65
2021/06/19 09:00:22;;;;;;;14.07;4.03;;;32.90;44.80;;;;;;5085779;28;20091;-66
2021/06/19 09:02:51;;;;;;;14.95;3.75;;;32.80;44.90;;;;;;5064326;28;20153;-64
2021/06/19 09:05:26;;;;;;;21.67;4.22;;;32.80;45.20;;;;;;5090256;28;20483;-65
2021/06/19 09:07:54;;;;;;;15.52;4.38;;;32.80;45.10;;;;;;5065849;28;20630;-65
2021/06/19 09:10:28;;;;;;;25.05;4.53;;;32.80;45.00;;;;;;5087223;28;20076;-64
2021/06/19 09:13:05;;;;;;;14.50;3.97;;;32.80;45.00;;;;;;5088499;28;20591;-66
2021/06/19 09:15:37;;;;;;;10.13;3.70;;;32.70;45.20;;;;;;5089410;28;20064;-65
2021/06/19 09:20:38;;;;;;;13.95;4.10;;;32.70;45.20;;;;;;5060738;22;20124;-65
2021/06/19 09:23:07;;;;;;;23.58;4.40;;;32.70;45.20;;;;;;5035228;28;20315;-67
2021/06/19 09:25:34;;;;;;;17.15;4.65;;;32.70;45.40;;;;;;5058322;28;20085;-65
2021/06/19 09:28:06;;;;;;;14.70;4.38;;;32.70;45.50;;;;;;5040037;28;20108;-64
2021/06/19 09:30:34;;;;;;;23.50;4.80;;;32.70;45.40;;;;;;5054651;28;20083;-64
2021/06/19 09:33:08;;;;;;;18.65;4.30;;;32.70;45.50;;;;;;5057892;28;20070;-66
2021/06/19 09:35:42;;;;;;;16.02;4.32;;;32.70;45.60;;;;;;5059933;28;20080;-66
2021/06/19 09:38:14;;;;;;;15.20;4.22;;;32.60;45.80;;;;;;5036465;28;20101;-65
2021/06/19 09:40:45;;;;;;;18.67;4.70;;;32.50;46.20;;;;;;5038725;28;20073;-65
2021/06/19 09:43:20;;;;;;;17.48;4.43;;;32.50;46.30;;;;;;5037159;28;20101;-65
2021/06/19 09:46:09;;;;;;;21.48;4.50;;;32.50;46.40;;;;;;5069528;28;20073;-65
2021/06/19 09:48:43;;;;;;;19.23;4.38;;;32.50;46.40;;;;;;5056048;28;20073;-66
2021/06/19 09:51:26;;;;;;;17.85;4.28;;;32.50;46.40;;;;;;5037620;28;20109;-66
2021/06/19 09:54:11;;;;;;;18.70;4.50;;;32.40;46.90;;;;;;5056042;28;20069;-65
2021/06/19 09:57:00;;;;;;;24.02;5.25;;;32.30;46.30;;;;;;5036609;28;20534;-65
2021/06/19 09:59:33;;;;;;;24.02;5.13;;;32.40;46.20;;;;;;5058136;28;20556;-66
2021/06/19 10:02:04;;;;;;;24.25;5.47;;;32.30;46.70;;;;;;5058323;28;20124;-65
2021/06/19 10:04:32;;;;;;;22.98;6.53;;;32.30;45.90;;;;;;5040807;28;20467;-65
2021/06/19 10:07:00;;;;;;;26.95;5.72;;;32.20;46.20;;;;;;5042136;28;20127;-65
2021/06/19 10:09:26;;;;;;;23.35;6.82;;;32.10;46.90;;;;;;5040888;28;20096;-66
2021/06/19 10:11:54;;;;;;;25.45;8.68;;;32.10;47.80;;;;;;5059428;28;20129;-66
2021/06/19 10:14:24;;;;;;;18.38;8.93;;;32.10;48.20;;;;;;5038856;28;20170;-63
2021/06/19 10:16:54;;;;;;;27.27;9.10;;;32.10;48.30;;;;;;5020244;23;20115;-64
2021/06/19 10:19:26;;;;;;;27.33;8.88;;;32.10;48.00;;;;;;5029094;23;20079;-64
2021/06/19 10:21:54;;;;;;;27.38;10.15;;;32.00;47.70;;;;;;5092895;28;20068;-65
2021/06/19 10:24:24;;;;;;;27.45;10.38;;;32.00;47.60;;;;;;5072197;28;20076;-65
2021/06/19 10:26:52;;;;;;;31.83;10.60;;;31.90;47.20;;;;;;5090980;28;20069;-64
2021/06/19 10:29:23;;;;;;;36.17;13.73;;;31.90;47.10;;;;;;5088399;28;20076;-65
2021/06/19 10:31:50;;;;;;;38.30;13.63;;;31.90;47.00;;;;;;5074932;28;20160;-64
2021/06/19 10:34:30;;;;;;;42.22;16.38;;;31.80;47.20;;;;;;5078196;22;20215;-65
2021/06/19 10:37:03;;;;;;;46.55;18.70;;;31.80;47.60;;;;;;5093385;28;20173;-66
2021/06/19 10:39:41;;;;;;;48.05;17.35;;;31.80;48.30;;;;;;5075661;28;20088;-64
2021/06/19 10:42:17;;;;;;;45.08;15.13;;;31.80;49.00;;;;;;5076394;28;20083;-65
2021/06/19 10:45:06;;;;;;;24.13;8.88;;;31.80;49.70;;;;;;5093722;28;20085;-65
2021/06/19 10:47:53;;;;;;;31.55;9.95;;;31.70;50.50;;;;;;5092030;28;20079;-65
2021/06/19 10:50:24;;;;;;;27.25;7.85;;;31.70;50.50;;;;;;5093088;28;20151;-64
2021/06/19 10:53:14;;;;;;;19.63;6.55;;;31.70;50.80;;;;;;5074784;28;20137;-66
2021/06/19 10:55:44;;;;;;;22.00;5.97;;;31.60;51.10;;;;;;5075385;28;20081;-66
2021/06/19 10:58:24;;;;;;;19.55;5.65;;;31.60;51.30;;;;;;5092535;28;20149;-64
2021/06/19 11:00:54;;;;;;;18.52;5.32;;;31.60;51.60;;;;;;5092964;28;20073;-65
2021/06/19 11:03:49;;;;;;;21.67;5.15;;;31.60;51.60;;;;;;5092711;28;20069;-67
2021/06/19 11:06:25;;;;;;;24.80;5.55;;;31.60;52.10;;;;;;5075439;28;20072;-66
2021/06/19 11:09:07;;;;;;;16.93;4.93;;;31.60;52.30;;;;;;5074152;28;20125;-66
2021/06/19 11:11:47;;;;;;;23.38;4.93;;;31.60;52.50;;;;;;5075250;28;20085;-64
2021/06/19 11:14:33;;;;;;;19.58;4.68;;;31.50;52.40;;;;;;5093097;28;20449;-65
2021/06/19 11:17:00;;;;;;;17.77;5.03;;;31.40;52.50;;;;;;5073372;28;20116;-65
2021/06/19 11:19:39;;;;;;;18.83;5.30;;;31.50;52.60;;;;;;5074607;28;20076;-66
2021/06/19 11:22:25;;;;;;;22.77;5.47;;;31.50;52.50;;;;;;5091771;28;20071;-65
2021/06/19 11:27:50;;;;;;;19.30;6.45;;;31.50;52.20;;;;;;5093149;28;20138;-66
2021/06/19 11:30:38;;;;;;;19.75;6.35;;;31.40;51.90;;;;;;5074498;28;20146;-66
2021/06/19 11:33:25;;;;;;;18.80;5.60;;;31.40;51.90;;;;;;5091573;28;20079;-66
2021/06/19 11:36:08;;;;;;;21.05;5.85;;;31.40;51.80;;;;;;5033900;28;20085;-66
2021/06/19 11:38:58;;;;;;;24.08;5.40;;;31.30;51.60;;;;;;5051964;28;20105;-65
2021/06/19 11:41:35;;;;;;;20.85;4.78;;;31.30;50.60;;;;;;5050660;28;20073;-66
2021/06/19 11:44:10;;;;;;;16.60;4.60;;;31.30;49.70;;;;;;5032102;28;20077;-65
2021/06/19 11:46:36;;;;;;;10.32;3.67;;;31.20;48.90;;;;;;5065624;23;20112;-65
2021/06/19 11:49:08;;;;;;;17.42;4.22;;;31.20;48.40;;;;;;5090606;28;20072;-66
2021/06/19 11:51:35;;;;;;;13.23;3.85;;;31.20;48.40;;;;;;5070387;28;20604;-66
2021/06/19 11:54:02;;;;;;;13.10;5.10;;;31.30;48.70;;;;;;5069678;28;20171;-65
2021/06/19 11:56:31;;;;;;;21.17;5.45;;;31.30;48.80;;;;;;5067456;28;20438;-66
2021/06/19 11:59:04;;;;;;;30.15;7.00;;;31.30;48.90;;;;;;5088503;28;20072;-66
2021/06/19 12:01:38;;;;;;;25.38;7.63;;;31.30;49.20;;;;;;5089992;28;20073;-65
2021/06/19 12:04:18;;;;;;;25.00;8.65;;;31.30;49.30;;;;;;5069405;28;20102;-66
2021/06/19 12:07:04;;;;;;;27.63;8.60;;;31.30;48.80;;;;;;5069973;28;20079;-65
2021/06/19 12:09:32;;;;;;;30.02;10.82;;;31.20;49.00;;;;;;5090665;28;20072;-67
2021/06/19 12:12:01;;;;;;;25.17;10.57;;;31.10;49.10;;;;;;5069343;28;20422;-66
2021/06/19 12:14:39;;;;;;;36.00;11.25;;;31.20;49.20;;;;;;5068115;28;20080;-66
2021/06/19 12:17:08;;;;;;;35.83;9.73;;;31.20;49.20;;;;;;5088131;28;20553;-64
2021/06/19 12:19:42;;;;;;;34.03;9.27;;;31.20;49.00;;;;;;5070551;28;20437;-65
2021/06/19 12:22:16;;;;;;;26.30;8.05;;;31.10;49.00;;;;;;5089769;28;20108;-66
2021/06/19 12:24:47;;;;;;;32.30;7.57;;;31.10;49.10;;;;;;5086511;28;20103;-66
2021/06/19 12:27:19;;;;;;;20.88;6.47;;;31.00;48.90;;;;;;5109505;22;20127;-66
2021/06/19 12:30:01;;;;;;;20.95;6.10;;;31.00;48.10;;;;;;5089336;28;20103;-64
2021/06/19 12:32:38;;;;;;;17.83;4.97;;;31.00;48.30;;;;;;5092853;22;20562;-65
2021/06/19 12:35:11;;;;;;;24.92;4.97;;;31.00;46.40;;;;;;5085969;28;20073;-66
2021/06/19 12:37:40;;;;;;;16.10;5.05;;;31.00;57.80;;;;;;5080187;28;20457;-66
2021/06/19 12:40:12;;;;;;;22.30;5.07;;;31.00;46.40;;;;;;5085944;28;20080;-65
2021/06/19 12:42:52;;;;;;;21.15;4.10;;;31.00;46.30;;;;;;5090310;28;20159;-65
2021/06/19 12:45:23;;;;;;;15.38;4.10;;;31.00;45.40;;;;;;5092429;28;20076;-66
2021/06/19 12:47:51;;;;;;;17.92;4.38;;;31.00;45.10;;;;;;5105551;28;20068;-66
2021/06/19 12:50:28;;;;;;;16.85;3.80;;;30.90;44.70;;;;;;5107008;28;20433;-66
2021/06/19 12:52:59;;;;;;;12.60;3.10;;;30.90;44.90;;;;;;5106702;28;20071;-66
2021/06/19 12:55:27;;;;;;;17.38;3.35;;;30.80;45.60;;;;;;5105581;28;20072;-65